sensor_id;sensor_type;location;lat;lon;timestamp;temperature;humidity
46117;DHT22;32591;48.102;11.772;2023-07-29T00:01:41;17.10;99.90
46117;DHT22;32591;48.102;11.772;2023-07-29T00:04:08;17.10;99.90
46117;DHT22;32591;48.102;11.772;2023-07-29T00:06:35;17.10;99.90
46117;DHT22;32591;48.102;11.772;2023-07-29T00:09:02;17.10;99.90
46117;DHT22;32591;48.102;11.772;2023-07-29T00:11:31;17.00;99.90
46117;DHT22;32591;48.102;11.772;2023-07-29T00:13:59;17.00;99.90
46117;DHT22;32591;48.102;11.772;2023-07-29T00:16:26;17.00;99.90
46117;DHT22;32591;48.102;11.772;2023-07-29T00:18:53;17.00;99.90
46117;DHT22;32591;48.102;11.772;2023-07-29T00:21:20;17.00;99.90
46117;DHT22;32591;48.102;11.772;2023-07-29T00:23:47;17.00;99.90
46117;DHT22;32591;48.102;11.772;2023-07-29T00:26:14;17.00;99.90
46117;DHT22;32591;48.102;11.772;2023-07-29T00:28:42;17.00;99.90
46117;DHT22;32591;48.102;11.772;2023-07-29T00:31:09;17.00;99.90
46117;DHT22;32591;48.102;11.772;2023-07-29T00:33:36;17.00;99.90
46117;DHT22;32591;48.102;11.772;2023-07-29T00:36:03;17.00;99.90
46117;DHT22;32591;48.102;11.772;2023-07-29T00:38:30;17.00;99.90
46117;DHT22;32591;48.102;11.772;2023-07-29T00:40:58;17.00;99.90
46117;DHT22;32591;48.102;11.772;2023-07-29T00:43:25;17.00;99.90
46117;DHT22;32591;48.102;11.772;2023-07-29T00:45:53;17.00;99.90
46117;DHT22;32591;48.102;11.772;2023-07-29T00:48:22;17.00;99.90
46117;DHT22;32591;48.102;11.772;2023-07-29T00:50:50;17.00;99.90
46117;DHT22;32591;48.102;11.772;2023-07-29T00:53:17;17.00;99.90
46117;DHT22;32591;48.102;11.772;2023-07-29T00:55:44;17.00;99.90
46117;DHT22;32591;48.102;11.772;2023-07-29T00:58:12;17.00;99.90
46117;DHT22;32591;48.102;11.772;2023-07-29T01:00:39;17.00;99.90
46117;DHT22;32591;48.102;11.772;2023-07-29T01:03:08;17.00;99.90
46117;DHT22;32591;48.102;11.772;2023-07-29T01:05:41;17.00;99.90
46117;DHT22;32591;48.102;11.772;2023-07-29T01:08:24;17.10;99.90
46117;DHT22;32591;48.102;11.772;2023-07-29T01:10:58;17.10;99.90
46117;DHT22;32591;48.102;11.772;2023-07-29T01:13:35;17.10;99.90
46117;DHT22;32591;48.102;11.772;2023-07-29T01:16:09;17.10;99.90
46117;DHT22;32591;48.102;11.772;2023-07-29T01:18:43;17.10;99.90
46117;DHT22;32591;48.102;11.772;2023-07-29T01:21:13;17.10;99.90
46117;DHT22;32591;48.102;11.772;2023-07-29T01:23:42;17.10;99.90
46117;DHT22;32591;48.102;11.772;2023-07-29T01:26:10;17.10;99.90
46117;DHT22;32591;48.102;11.772;2023-07-29T01:28:37;17.10;99.90
46117;DHT22;32591;48.102;11.772;2023-07-29T01:31:13;17.10;99.90
46117;DHT22;32591;48.102;11.772;2023-07-29T01:33:48;17.10;99.90
46117;DHT22;32591;48.102;11.772;2023-07-29T01:36:22;17.00;99.90
46117;DHT22;32591;48.102;11.772;2023-07-29T01:38:51;17.00;99.90
46117;DHT22;32591;48.102;11.772;2023-07-29T01:41:19;17.00;99.90
46117;DHT22;32591;48.102;11.772;2023-07-29T01:43:47;17.00;99.90
46117;DHT22;32591;48.102;11.772;2023-07-29T01:46:14;17.00;99.90
46117;DHT22;32591;48.102;11.772;2023-07-29T01:48:42;16.90;99.90
46117;DHT22;32591;48.102;11.772;2023-07-29T01:51:12;16.90;99.90
46117;DHT22;32591;48.102;11.772;2023-07-29T01:53:39;16.90;99.90
46117;DHT22;32591;48.102;11.772;2023-07-29T01:56:07;16.80;99.90
46117;DHT22;32591;48.102;11.772;2023-07-29T01:58:34;16.80;99.90
46117;DHT22;32591;48.102;11.772;2023-07-29T02:01:01;16.80;99.90
46117;DHT22;32591;48.102;11.772;2023-07-29T02:03:28;16.70;99.90
46117;DHT22;32591;48.102;11.772;2023-07-29T02:05:55;16.70;99.90
46117;DHT22;32591;48.102;11.772;2023-07-29T02:08:22;16.70;99.90
46117;DHT22;32591;48.102;11.772;2023-07-29T02:10:49;16.60;99.90
46117;DHT22;32591;48.102;11.772;2023-07-29T02:13:17;16.60;99.90
46117;DHT22;32591;48.102;11.772;2023-07-29T02:15:44;16.60;99.90
46117;DHT22;32591;48.102;11.772;2023-07-29T02:18:11;16.60;99.90
46117;DHT22;32591;48.102;11.772;2023-07-29T02:20:38;16.60;99.90
46117;DHT22;32591;48.102;11.772;2023-07-29T02:23:06;16.60;99.90
46117;DHT22;32591;48.102;11.772;2023-07-29T02:25:35;16.60;99.90
46117;DHT22;32591;48.102;11.772;2023-07-29T02:28:02;16.60;99.90
46117;DHT22;32591;48.102;11.772;2023-07-29T02:30:31;16.50;99.90
46117;DHT22;32591;48.102;11.772;2023-07-29T02:32:58;16.50;99.90
46117;DHT22;32591;48.102;11.772;2023-07-29T02:35:26;16.50;99.90
46117;DHT22;32591;48.102;11.772;2023-07-29T02:37:53;16.50;99.90
46117;DHT22;32591;48.102;11.772;2023-07-29T02:40:20;16.40;99.90
46117;DHT22;32591;48.102;11.772;2023-07-29T02:42:48;16.40;99.90
46117;DHT22;32591;48.102;11.772;2023-07-29T02:45:15;16.40;99.90
46117;DHT22;32591;48.102;11.772;2023-07-29T02:47:43;16.40;99.90
46117;DHT22;32591;48.102;11.772;2023-07-29T02:50:10;16.30;99.90
46117;DHT22;32591;48.102;11.772;2023-07-29T02:52:38;16.30;99.90
46117;DHT22;32591;48.102;11.772;2023-07-29T02:55:06;16.30;99.90
46117;DHT22;32591;48.102;11.772;2023-07-29T02:57:33;16.30;99.90
46117;DHT22;32591;48.102;11.772;2023-07-29T03:00:00;16.30;99.90
46117;DHT22;32591;48.102;11.772;2023-07-29T03:02:27;16.30;99.90
46117;DHT22;32591;48.102;11.772;2023-07-29T03:04:55;16.30;99.90
46117;DHT22;32591;48.102;11.772;2023-07-29T03:07:22;16.30;99.90
46117;DHT22;32591;48.102;11.772;2023-07-29T03:09:49;16.30;99.90
46117;DHT22;32591;48.102;11.772;2023-07-29T03:12:15;16.30;99.90
46117;DHT22;32591;48.102;11.772;2023-07-29T03:14:42;16.30;99.90
46117;DHT22;32591;48.102;11.772;2023-07-29T03:17:09;16.30;99.90
46117;DHT22;32591;48.102;11.772;2023-07-29T03:19:36;16.20;99.90
46117;DHT22;32591;48.102;11.772;2023-07-29T03:22:05;16.20;99.90
46117;DHT22;32591;48.102;11.772;2023-07-29T03:24:32;16.20;99.90
46117;DHT22;32591;48.102;11.772;2023-07-29T03:26:59;16.20;99.90
46117;DHT22;32591;48.102;11.772;2023-07-29T03:29:26;16.20;99.90
46117;DHT22;32591;48.102;11.772;2023-07-29T03:31:53;16.20;99.90
46117;DHT22;32591;48.102;11.772;2023-07-29T03:34:20;16.20;99.90
46117;DHT22;32591;48.102;11.772;2023-07-29T03:36:47;16.20;99.90
46117;DHT22;32591;48.102;11.772;2023-07-29T03:39:17;16.10;99.90
46117;DHT22;32591;48.102;11.772;2023-07-29T03:41:44;16.00;99.90
46117;DHT22;32591;48.102;11.772;2023-07-29T03:44:11;15.90;99.90
46117;DHT22;32591;48.102;11.772;2023-07-29T03:46:38;15.80;99.90
46117;DHT22;32591;48.102;11.772;2023-07-29T03:49:05;15.90;99.90
46117;DHT22;32591;48.102;11.772;2023-07-29T03:51:32;16.00;99.90
46117;DHT22;32591;48.102;11.772;2023-07-29T03:53:59;16.10;99.90
46117;DHT22;32591;48.102;11.772;2023-07-29T03:56:27;16.10;99.90
46117;DHT22;32591;48.102;11.772;2023-07-29T03:59:02;16.20;99.90
46117;DHT22;32591;48.102;11.772;2023-07-29T04:01:30;16.20;99.90
46117;DHT22;32591;48.102;11.772;2023-07-29T04:03:58;16.30;99.90
46117;DHT22;32591;48.102;11.772;2023-07-29T04:06:25;16.30;99.90
46117;DHT22;32591;48.102;11.772;2023-07-29T04:08:53;16.40;99.90
46117;DHT22;32591;48.102;11.772;2023-07-29T04:11:20;16.50;99.90
46117;DHT22;32591;48.102;11.772;2023-07-29T04:13:48;16.50;99.90
46117;DHT22;32591;48.102;11.772;2023-07-29T04:16:15;16.50;99.90
46117;DHT22;32591;48.102;11.772;2023-07-29T04:18:43;16.50;99.90
46117;DHT22;32591;48.102;11.772;2023-07-29T04:21:10;16.60;99.90
46117;DHT22;32591;48.102;11.772;2023-07-29T04:23:37;16.60;99.90
46117;DHT22;32591;48.102;11.772;2023-07-29T04:26:05;16.60;99.90
46117;DHT22;32591;48.102;11.772;2023-07-29T04:28:32;16.60;99.90
46117;DHT22;32591;48.102;11.772;2023-07-29T04:31:01;16.60;99.90
46117;DHT22;32591;48.102;11.772;2023-07-29T04:33:29;16.60;99.90
46117;DHT22;32591;48.102;11.772;2023-07-29T04:35:56;16.60;99.90
46117;DHT22;32591;48.102;11.772;2023-07-29T04:38:27;16.70;99.90
46117;DHT22;32591;48.102;11.772;2023-07-29T04:40:56;16.70;99.90
46117;DHT22;32591;48.102;11.772;2023-07-29T04:43:27;16.70;99.90
46117;DHT22;32591;48.102;11.772;2023-07-29T04:45:54;16.70;99.90
46117;DHT22;32591;48.102;11.772;2023-07-29T04:48:22;16.70;99.90
46117;DHT22;32591;48.102;11.772;2023-07-29T04:50:49;16.80;99.90
46117;DHT22;32591;48.102;11.772;2023-07-29T04:53:16;16.80;99.90
46117;DHT22;32591;48.102;11.772;2023-07-29T04:55:43;16.80;99.90
46117;DHT22;32591;48.102;11.772;2023-07-29T04:58:10;16.90;99.90
46117;DHT22;32591;48.102;11.772;2023-07-29T05:00:37;16.90;99.90
46117;DHT22;32591;48.102;11.772;2023-07-29T05:03:04;17.00;99.90
46117;DHT22;32591;48.102;11.772;2023-07-29T05:05:33;17.00;99.90
46117;DHT22;32591;48.102;11.772;2023-07-29T05:08:00;17.00;99.90
46117;DHT22;32591;48.102;11.772;2023-07-29T05:10:27;17.00;99.90
46117;DHT22;32591;48.102;11.772;2023-07-29T05:12:54;17.10;99.90
46117;DHT22;32591;48.102;11.772;2023-07-29T05:15:21;17.10;99.90
46117;DHT22;32591;48.102;11.772;2023-07-29T05:17:48;17.30;99.90
46117;DHT22;32591;48.102;11.772;2023-07-29T05:20:15;17.30;99.90
46117;DHT22;32591;48.102;11.772;2023-07-29T05:22:43;17.40;99.90
46117;DHT22;32591;48.102;11.772;2023-07-29T05:25:10;17.50;99.90
46117;DHT22;32591;48.102;11.772;2023-07-29T05:27:37;17.40;99.90
46117;DHT22;32591;48.102;11.772;2023-07-29T05:30:06;17.50;99.90
46117;DHT22;32591;48.102;11.772;2023-07-29T05:32:34;17.70;99.90
46117;DHT22;32591;48.102;11.772;2023-07-29T05:35:00;17.80;99.90
46117;DHT22;32591;48.102;11.772;2023-07-29T05:37:28;17.80;99.90
46117;DHT22;32591;48.102;11.772;2023-07-29T05:39:57;17.90;99.90
46117;DHT22;32591;48.102;11.772;2023-07-29T05:42:24;17.90;99.90
46117;DHT22;32591;48.102;11.772;2023-07-29T05:44:50;17.90;99.90
46117;DHT22;32591;48.102;11.772;2023-07-29T05:47:17;17.90;99.90
46117;DHT22;32591;48.102;11.772;2023-07-29T05:49:44;17.90;99.90
46117;DHT22;32591;48.102;11.772;2023-07-29T05:52:11;18.00;99.90
46117;DHT22;32591;48.102;11.772;2023-07-29T05:54:38;18.10;99.90
46117;DHT22;32591;48.102;11.772;2023-07-29T05:57:07;18.10;99.90
46117;DHT22;32591;48.102;11.772;2023-07-29T05:59:34;18.00;99.90
46117;DHT22;32591;48.102;11.772;2023-07-29T06:02:01;18.10;99.90
46117;DHT22;32591;48.102;11.772;2023-07-29T06:04:28;18.10;99.90
46117;DHT22;32591;48.102;11.772;2023-07-29T06:06:55;18.10;99.90
46117;DHT22;32591;48.102;11.772;2023-07-29T06:09:22;18.20;99.90
46117;DHT22;32591;48.102;11.772;2023-07-29T06:11:51;18.10;99.90
46117;DHT22;32591;48.102;11.772;2023-07-29T06:14:19;18.10;99.90
46117;DHT22;32591;48.102;11.772;2023-07-29T06:16:46;18.00;99.90
46117;DHT22;32591;48.102;11.772;2023-07-29T06:19:13;18.00;99.90
46117;DHT22;32591;48.102;11.772;2023-07-29T06:21:40;17.90;99.90
46117;DHT22;32591;48.102;11.772;2023-07-29T06:24:07;17.80;99.90
46117;DHT22;32591;48.102;11.772;2023-07-29T06:26:34;17.80;99.90
46117;DHT22;32591;48.102;11.772;2023-07-29T06:29:01;17.90;99.90
46117;DHT22;32591;48.102;11.772;2023-07-29T06:31:29;17.90;99.90
46117;DHT22;32591;48.102;11.772;2023-07-29T06:33:58;17.90;99.90
46117;DHT22;32591;48.102;11.772;2023-07-29T06:36:25;17.90;99.90
46117;DHT22;32591;48.102;11.772;2023-07-29T06:38:52;17.90;99.90
46117;DHT22;32591;48.102;11.772;2023-07-29T06:41:19;17.90;99.90
46117;DHT22;32591;48.102;11.772;2023-07-29T06:43:46;17.90;99.90
46117;DHT22;32591;48.102;11.772;2023-07-29T06:46:12;17.70;99.90
46117;DHT22;32591;48.102;11.772;2023-07-29T06:48:41;17.80;99.90
46117;DHT22;32591;48.102;11.772;2023-07-29T06:51:08;17.90;99.90
46117;DHT22;32591;48.102;11.772;2023-07-29T06:53:35;18.00;99.90
46117;DHT22;32591;48.102;11.772;2023-07-29T06:56:02;18.10;99.90
46117;DHT22;32591;48.102;11.772;2023-07-29T06:58:30;18.20;99.90
46117;DHT22;32591;48.102;11.772;2023-07-29T07:00:57;18.20;99.90
46117;DHT22;32591;48.102;11.772;2023-07-29T07:03:24;18.20;99.90
46117;DHT22;32591;48.102;11.772;2023-07-29T07:05:52;18.00;99.90
46117;DHT22;32591;48.102;11.772;2023-07-29T07:08:19;17.90;99.90
46117;DHT22;32591;48.102;11.772;2023-07-29T07:10:46;17.70;99.90
46117;DHT22;32591;48.102;11.772;2023-07-29T07:13:13;17.70;99.90
46117;DHT22;32591;48.102;11.772;2023-07-29T07:15:41;17.60;99.90
46117;DHT22;32591;48.102;11.772;2023-07-29T07:18:08;17.50;99.90
46117;DHT22;32591;48.102;11.772;2023-07-29T07:20:35;17.50;99.90
46117;DHT22;32591;48.102;11.772;2023-07-29T07:23:03;17.60;99.90
46117;DHT22;32591;48.102;11.772;2023-07-29T07:25:34;17.70;99.90
46117;DHT22;32591;48.102;11.772;2023-07-29T07:28:01;17.70;99.90
46117;DHT22;32591;48.102;11.772;2023-07-29T07:30:28;17.70;99.90
46117;DHT22;32591;48.102;11.772;2023-07-29T07:32:55;17.80;99.90
46117;DHT22;32591;48.102;11.772;2023-07-29T07:35:22;17.80;99.90
46117;DHT22;32591;48.102;11.772;2023-07-29T07:37:49;17.90;99.90
46117;DHT22;32591;48.102;11.772;2023-07-29T07:40:17;18.00;99.90
46117;DHT22;32591;48.102;11.772;2023-07-29T07:42:44;18.10;99.90
46117;DHT22;32591;48.102;11.772;2023-07-29T07:45:11;18.20;99.90
46117;DHT22;32591;48.102;11.772;2023-07-29T07:47:38;18.30;99.90
46117;DHT22;32591;48.102;11.772;2023-07-29T07:50:05;18.40;99.90
46117;DHT22;32591;48.102;11.772;2023-07-29T07:52:32;18.30;99.90
46117;DHT22;32591;48.102;11.772;2023-07-29T07:54:59;18.40;99.90
46117;DHT22;32591;48.102;11.772;2023-07-29T07:57:28;18.40;99.90
46117;DHT22;32591;48.102;11.772;2023-07-29T07:59:55;18.50;99.90
46117;DHT22;32591;48.102;11.772;2023-07-29T08:02:22;18.50;99.90
46117;DHT22;32591;48.102;11.772;2023-07-29T08:04:49;18.60;99.90
46117;DHT22;32591;48.102;11.772;2023-07-29T08:07:16;18.60;99.90
46117;DHT22;32591;48.102;11.772;2023-07-29T08:09:43;18.60;99.90
46117;DHT22;32591;48.102;11.772;2023-07-29T08:12:10;18.70;99.90
46117;DHT22;32591;48.102;11.772;2023-07-29T08:14:38;18.70;99.90
46117;DHT22;32591;48.102;11.772;2023-07-29T08:17:05;18.70;99.90
46117;DHT22;32591;48.102;11.772;2023-07-29T08:19:32;18.80;99.90
46117;DHT22;32591;48.102;11.772;2023-07-29T08:22:02;18.90;99.90
46117;DHT22;32591;48.102;11.772;2023-07-29T08:24:29;18.90;99.90
46117;DHT22;32591;48.102;11.772;2023-07-29T08:26:56;19.00;99.90
46117;DHT22;32591;48.102;11.772;2023-07-29T08:29:23;19.10;99.90
46117;DHT22;32591;48.102;11.772;2023-07-29T08:31:51;19.20;99.90
46117;DHT22;32591;48.102;11.772;2023-07-29T08:34:18;19.30;99.90
46117;DHT22;32591;48.102;11.772;2023-07-29T08:36:45;19.30;99.90
46117;DHT22;32591;48.102;11.772;2023-07-29T08:39:12;19.30;99.90
46117;DHT22;32591;48.102;11.772;2023-07-29T08:41:48;19.50;99.90
46117;DHT22;32591;48.102;11.772;2023-07-29T08:44:21;19.60;99.90
46117;DHT22;32591;48.102;11.772;2023-07-29T08:46:51;19.60;99.90
46117;DHT22;32591;48.102;11.772;2023-07-29T08:49:19;19.60;99.90
46117;DHT22;32591;48.102;11.772;2023-07-29T08:51:48;19.50;99.90
46117;DHT22;32591;48.102;11.772;2023-07-29T08:54:16;19.40;99.90
46117;DHT22;32591;48.102;11.772;2023-07-29T08:56:43;19.50;99.90
46117;DHT22;32591;48.102;11.772;2023-07-29T08:59:11;19.60;99.90
46117;DHT22;32591;48.102;11.772;2023-07-29T09:01:40;19.60;99.90
46117;DHT22;32591;48.102;11.772;2023-07-29T09:04:09;19.60;99.90
46117;DHT22;32591;48.102;11.772;2023-07-29T09:06:37;19.70;99.90
46117;DHT22;32591;48.102;11.772;2023-07-29T09:09:07;19.80;99.90
46117;DHT22;32591;48.102;11.772;2023-07-29T09:11:35;19.90;99.90
46117;DHT22;32591;48.102;11.772;2023-07-29T09:14:02;20.00;99.90
46117;DHT22;32591;48.102;11.772;2023-07-29T09:16:30;20.00;99.90
46117;DHT22;32591;48.102;11.772;2023-07-29T09:19:01;20.10;99.90
46117;DHT22;32591;48.102;11.772;2023-07-29T09:21:30;20.10;99.90
46117;DHT22;32591;48.102;11.772;2023-07-29T09:24:03;20.20;99.90
46117;DHT22;32591;48.102;11.772;2023-07-29T09:26:30;20.20;99.90
46117;DHT22;32591;48.102;11.772;2023-07-29T09:28:58;20.30;99.90
46117;DHT22;32591;48.102;11.772;2023-07-29T09:31:28;20.50;99.90
46117;DHT22;32591;48.102;11.772;2023-07-29T09:33:56;20.70;99.90
46117;DHT22;32591;48.102;11.772;2023-07-29T09:36:25;20.90;99.90
46117;DHT22;32591;48.102;11.772;2023-07-29T09:38:54;21.20;99.90
46117;DHT22;32591;48.102;11.772;2023-07-29T09:41:22;21.40;99.90
46117;DHT22;32591;48.102;11.772;2023-07-29T09:43:55;21.50;99.90
46117;DHT22;32591;48.102;11.772;2023-07-29T09:46:24;21.70;99.90
46117;DHT22;32591;48.102;11.772;2023-07-29T09:48:53;22.00;99.90
46117;DHT22;32591;48.102;11.772;2023-07-29T09:51:21;22.20;99.90
46117;DHT22;32591;48.102;11.772;2023-07-29T09:53:50;22.30;99.90
46117;DHT22;32591;48.102;11.772;2023-07-29T09:56:24;22.40;99.90
46117;DHT22;32591;48.102;11.772;2023-07-29T09:58:52;22.50;99.90
46117;DHT22;32591;48.102;11.772;2023-07-29T10:01:20;22.80;99.90
46117;DHT22;32591;48.102;11.772;2023-07-29T10:03:47;22.90;99.90
46117;DHT22;32591;48.102;11.772;2023-07-29T10:06:15;22.90;99.90
46117;DHT22;32591;48.102;11.772;2023-07-29T10:08:43;23.00;99.90
46117;DHT22;32591;48.102;11.772;2023-07-29T10:11:11;23.10;99.90
46117;DHT22;32591;48.102;11.772;2023-07-29T10:13:40;23.00;99.90
46117;DHT22;32591;48.102;11.772;2023-07-29T10:16:07;23.00;99.90
46117;DHT22;32591;48.102;11.772;2023-07-29T10:18:34;23.10;99.90
46117;DHT22;32591;48.102;11.772;2023-07-29T10:21:02;23.10;99.90
46117;DHT22;32591;48.102;11.772;2023-07-29T10:23:34;23.10;99.90
46117;DHT22;32591;48.102;11.772;2023-07-29T10:26:05;23.20;99.90
46117;DHT22;32591;48.102;11.772;2023-07-29T10:28:33;23.40;99.90
46117;DHT22;32591;48.102;11.772;2023-07-29T10:31:05;23.60;99.90
46117;DHT22;32591;48.102;11.772;2023-07-29T10:33:33;23.70;99.90
46117;DHT22;32591;48.102;11.772;2023-07-29T10:36:01;23.80;99.90
46117;DHT22;32591;48.102;11.772;2023-07-29T10:38:29;23.80;99.90
46117;DHT22;32591;48.102;11.772;2023-07-29T10:40:56;23.70;99.90
46117;DHT22;32591;48.102;11.772;2023-07-29T10:43:27;23.70;99.90
46117;DHT22;32591;48.102;11.772;2023-07-29T10:45:55;24.00;99.90
46117;DHT22;32591;48.102;11.772;2023-07-29T10:48:44;24.20;99.90
46117;DHT22;32591;48.102;11.772;2023-07-29T10:51:25;24.30;99.90
46117;DHT22;32591;48.102;11.772;2023-07-29T10:53:55;24.30;99.90
46117;DHT22;32591;48.102;11.772;2023-07-29T10:56:28;24.40;99.90
46117;DHT22;32591;48.102;11.772;2023-07-29T10:58:57;24.50;99.90
46117;DHT22;32591;48.102;11.772;2023-07-29T11:01:29;24.70;99.90
46117;DHT22;32591;48.102;11.772;2023-07-29T11:04:24;24.90;99.90
46117;DHT22;32591;48.102;11.772;2023-07-29T11:07:18;25.00;99.90
46117;DHT22;32591;48.102;11.772;2023-07-29T11:09:54;24.90;99.90
46117;DHT22;32591;48.102;11.772;2023-07-29T11:12:40;24.90;99.90
46117;DHT22;32591;48.102;11.772;2023-07-29T11:15:21;25.00;99.90
46117;DHT22;32591;48.102;11.772;2023-07-29T11:17:50;25.00;99.90
46117;DHT22;32591;48.102;11.772;2023-07-29T11:20:21;25.10;99.90
46117;DHT22;32591;48.102;11.772;2023-07-29T11:22:49;25.30;99.90
46117;DHT22;32591;48.102;11.772;2023-07-29T11:25:17;25.40;99.90
46117;DHT22;32591;48.102;11.772;2023-07-29T11:27:45;25.30;99.90
46117;DHT22;32591;48.102;11.772;2023-07-29T11:30:13;25.30;99.90
46117;DHT22;32591;48.102;11.772;2023-07-29T11:32:43;25.30;99.90
46117;DHT22;32591;48.102;11.772;2023-07-29T11:35:12;25.40;99.90
46117;DHT22;32591;48.102;11.772;2023-07-29T11:37:43;25.30;99.90
46117;DHT22;32591;48.102;11.772;2023-07-29T11:40:14;25.10;99.90
46117;DHT22;32591;48.102;11.772;2023-07-29T11:42:41;25.00;99.90
46117;DHT22;32591;48.102;11.772;2023-07-29T11:45:09;24.70;99.90
46117;DHT22;32591;48.102;11.772;2023-07-29T11:47:37;24.30;99.90
46117;DHT22;32591;48.102;11.772;2023-07-29T11:50:05;23.80;99.90
46117;DHT22;32591;48.102;11.772;2023-07-29T11:52:35;23.60;99.90
46117;DHT22;32591;48.102;11.772;2023-07-29T11:55:05;23.50;99.90
46117;DHT22;32591;48.102;11.772;2023-07-29T11:57:35;23.80;99.90
46117;DHT22;32591;48.102;11.772;2023-07-29T12:00:03;23.90;99.90
46117;DHT22;32591;48.102;11.772;2023-07-29T12:02:32;24.10;99.90
46117;DHT22;32591;48.102;11.772;2023-07-29T12:05:00;24.30;99.90
46117;DHT22;32591;48.102;11.772;2023-07-29T12:07:27;24.20;99.90
46117;DHT22;32591;48.102;11.772;2023-07-29T12:09:54;24.30;99.90
46117;DHT22;32591;48.102;11.772;2023-07-29T12:12:23;24.50;99.90
46117;DHT22;32591;48.102;11.772;2023-07-29T12:14:50;24.70;99.90
46117;DHT22;32591;48.102;11.772;2023-07-29T12:17:18;25.00;99.90
46117;DHT22;32591;48.102;11.772;2023-07-29T12:19:45;25.20;99.90
46117;DHT22;32591;48.102;11.772;2023-07-29T12:22:17;25.30;99.90
46117;DHT22;32591;48.102;11.772;2023-07-29T12:24:45;25.40;99.90
46117;DHT22;32591;48.102;11.772;2023-07-29T12:27:14;25.70;99.90
46117;DHT22;32591;48.102;11.772;2023-07-29T12:29:43;25.80;99.90
46117;DHT22;32591;48.102;11.772;2023-07-29T12:32:12;25.80;99.90
46117;DHT22;32591;48.102;11.772;2023-07-29T12:34:39;25.80;99.90
46117;DHT22;32591;48.102;11.772;2023-07-29T12:37:07;25.90;99.90
46117;DHT22;32591;48.102;11.772;2023-07-29T12:39:35;26.10;99.90
46117;DHT22;32591;48.102;11.772;2023-07-29T12:42:06;26.30;99.90
46117;DHT22;32591;48.102;11.772;2023-07-29T12:44:34;26.30;99.90
46117;DHT22;32591;48.102;11.772;2023-07-29T12:47:05;26.20;99.90
46117;DHT22;32591;48.102;11.772;2023-07-29T12:49:34;26.00;99.90
46117;DHT22;32591;48.102;11.772;2023-07-29T12:52:01;25.70;99.90
46117;DHT22;32591;48.102;11.772;2023-07-29T12:54:28;25.50;99.90
46117;DHT22;32591;48.102;11.772;2023-07-29T12:56:55;25.40;99.90
46117;DHT22;32591;48.102;11.772;2023-07-29T12:59:22;25.30;99.90
46117;DHT22;32591;48.102;11.772;2023-07-29T13:01:49;25.30;99.90
46117;DHT22;32591;48.102;11.772;2023-07-29T13:04:17;25.20;99.90
46117;DHT22;32591;48.102;11.772;2023-07-29T13:06:44;25.10;99.90
46117;DHT22;32591;48.102;11.772;2023-07-29T13:09:11;24.90;99.90
46117;DHT22;32591;48.102;11.772;2023-07-29T13:11:38;24.60;99.90
46117;DHT22;32591;48.102;11.772;2023-07-29T13:14:05;24.10;99.90
46117;DHT22;32591;48.102;11.772;2023-07-29T13:16:32;20.50;99.90
46117;DHT22;32591;48.102;11.772;2023-07-29T13:18:59;19.00;99.90
46117;DHT22;32591;48.102;11.772;2023-07-29T13:21:27;18.40;99.90
46117;DHT22;32591;48.102;11.772;2023-07-29T13:23:54;18.20;99.90
46117;DHT22;32591;48.102;11.772;2023-07-29T13:26:21;18.30;99.90
46117;DHT22;32591;48.102;11.772;2023-07-29T13:28:48;18.40;99.90
46117;DHT22;32591;48.102;11.772;2023-07-29T13:31:15;18.50;99.90
46117;DHT22;32591;48.102;11.772;2023-07-29T13:33:42;18.60;99.90
46117;DHT22;32591;48.102;11.772;2023-07-29T13:36:09;18.60;99.90
46117;DHT22;32591;48.102;11.772;2023-07-29T13:38:37;18.80;99.90
46117;DHT22;32591;48.102;11.772;2023-07-29T13:41:04;18.90;99.90
46117;DHT22;32591;48.102;11.772;2023-07-29T13:43:31;19.10;99.90
46117;DHT22;32591;48.102;11.772;2023-07-29T13:45:58;19.30;99.90
46117;DHT22;32591;48.102;11.772;2023-07-29T13:48:25;19.50;99.90
46117;DHT22;32591;48.102;11.772;2023-07-29T13:50:52;19.60;99.90
46117;DHT22;32591;48.102;11.772;2023-07-29T13:53:19;19.70;99.90
46117;DHT22;32591;48.102;11.772;2023-07-29T13:55:47;19.80;99.90
46117;DHT22;32591;48.102;11.772;2023-07-29T13:58:14;19.90;99.90
46117;DHT22;32591;48.102;11.772;2023-07-29T14:00:41;20.00;99.90
46117;DHT22;32591;48.102;11.772;2023-07-29T14:03:08;20.10;99.90
46117;DHT22;32591;48.102;11.772;2023-07-29T14:05:35;20.20;99.90
46117;DHT22;32591;48.102;11.772;2023-07-29T14:08:02;20.40;99.90
46117;DHT22;32591;48.102;11.772;2023-07-29T14:10:29;20.50;99.90
46117;DHT22;32591;48.102;11.772;2023-07-29T14:12:57;20.60;99.90
46117;DHT22;32591;48.102;11.772;2023-07-29T14:15:24;20.70;99.90
46117;DHT22;32591;48.102;11.772;2023-07-29T14:17:51;20.70;99.90
46117;DHT22;32591;48.102;11.772;2023-07-29T14:20:18;20.70;99.90
46117;DHT22;32591;48.102;11.772;2023-07-29T14:22:46;20.80;99.90
46117;DHT22;32591;48.102;11.772;2023-07-29T14:25:14;20.70;99.90
46117;DHT22;32591;48.102;11.772;2023-07-29T14:27:41;20.80;99.90
46117;DHT22;32591;48.102;11.772;2023-07-29T14:30:10;20.80;99.90
46117;DHT22;32591;48.102;11.772;2023-07-29T14:32:37;20.80;99.90
46117;DHT22;32591;48.102;11.772;2023-07-29T14:35:04;20.80;99.90
46117;DHT22;32591;48.102;11.772;2023-07-29T14:37:33;20.80;99.90
46117;DHT22;32591;48.102;11.772;2023-07-29T14:40:00;20.80;99.90
46117;DHT22;32591;48.102;11.772;2023-07-29T14:42:28;20.80;99.90
46117;DHT22;32591;48.102;11.772;2023-07-29T14:44:55;20.90;99.90
46117;DHT22;32591;48.102;11.772;2023-07-29T14:47:23;20.90;99.90
46117;DHT22;32591;48.102;11.772;2023-07-29T14:49:50;20.90;99.90
46117;DHT22;32591;48.102;11.772;2023-07-29T14:52:17;20.90;99.90
46117;DHT22;32591;48.102;11.772;2023-07-29T14:54:44;20.80;99.90
46117;DHT22;32591;48.102;11.772;2023-07-29T14:57:11;20.70;99.90
46117;DHT22;32591;48.102;11.772;2023-07-29T14:59:38;20.60;99.90
46117;DHT22;32591;48.102;11.772;2023-07-29T15:02:06;20.50;99.90
46117;DHT22;32591;48.102;11.772;2023-07-29T15:04:34;20.40;99.90
46117;DHT22;32591;48.102;11.772;2023-07-29T15:07:02;20.40;99.90
46117;DHT22;32591;48.102;11.772;2023-07-29T15:09:29;20.40;99.90
46117;DHT22;32591;48.102;11.772;2023-07-29T15:11:56;20.40;99.90
46117;DHT22;32591;48.102;11.772;2023-07-29T15:14:23;20.30;99.90
46117;DHT22;32591;48.102;11.772;2023-07-29T15:16:50;20.50;99.90
46117;DHT22;32591;48.102;11.772;2023-07-29T15:19:17;20.60;99.90
46117;DHT22;32591;48.102;11.772;2023-07-29T15:21:45;20.80;99.90